Time;durP1;ratioP1;P1;durP2;ratioP2;P2;SDS_P1;SDS_P2;PMS_P1;PMS_P2;Temp;Humidity;BMP_temperature;BMP_pressure;BME280_temperature;BME280_humidity;BME280_pressure;Samples;Min_cycle;Max_cycle;Signal;HPM_P1;HPM_P2
2023/12/08 00:00:33;;;;;;;49.97;14.27;;;28.80;67.30;;;;;;6122195;23;20022;-69
2023/12/08 00:03:00;;;;;;;168.02;62.92;;;28.90;67.60;;;;;;6122142;23;20374;-70
2023/12/08 00:05:27;;;;;;;1291.22;327.02;;;29.00;67.40;;;;;;6119897;23;20350;-69
2023/12/08 00:07:54;;;;;;;633.35;167.48;;;29.10;67.20;;;;;;6122190;23;20014;-69
2023/12/08 00:10:22;;;;;;;1162.95;309.35;;;29.10;67.40;;;;;;6121854;23;20367;-69
2023/12/08 07:29:58;;;;;;;20.63;5.05;;;26.70;74.40;;;;;;6150561;23;20032;-70
2023/12/08 07:32:25;;;;;;;14.88;5.35;;;26.70;73.80;;;;;;6153606;23;20041;-70
2023/12/08 07:34:52;;;;;;;18.00;4.65;;;26.70;73.70;;;;;;6153561;23;20133;-70
2023/12/08 07:37:19;;;;;;;18.20;4.97;;;26.70;73.60;;;;;;6153753;23;20016;-71
2023/12/08 07:39:47;;;;;;;20.85;5.18;;;26.70;73.50;;;;;;6154201;23;20005;-70
2023/12/08 07:42:14;;;;;;;25.20;5.22;;;26.70;73.00;;;;;;6154215;23;20012;-70
2023/12/08 07:44:41;;;;;;;19.70;5.00;;;26.70;72.90;;;;;;6153940;23;20010;-71
2023/12/08 07:47:09;;;;;;;19.60;5.55;;;26.70;72.50;;;;;;6154877;23;20045;-69
2023/12/08 07:49:36;;;;;;;21.27;5.60;;;26.70;72.90;;;;;;6154670;23;20076;-70
2023/12/08 07:52:04;;;;;;;20.17;5.60;;;26.60;72.70;;;;;;6154717;23;20417;-70
2023/12/08 07:54:32;;;;;;;18.98;5.32;;;26.70;73.40;;;;;;6154682;23;20005;-71
2023/12/08 07:56:59;;;;;;;24.73;5.80;;;26.60;73.80;;;;;;6155458;23;20103;-70
2023/12/08 07:59:27;;;;;;;23.63;6.05;;;26.50;74.50;;;;;;6128941;23;20008;-71
2023/12/08 08:01:54;;;;;;;17.05;4.65;;;26.50;74.50;;;;;;6155297;23;20085;-71
2023/12/08 08:04:21;;;;;;;20.38;5.50;;;26.50;74.50;;;;;;6154774;23;20010;-70
2023/12/08 08:06:49;;;;;;;17.48;5.40;;;26.40;74.80;;;;;;6154370;23;20314;-70
2023/12/08 08:09:17;;;;;;;23.20;5.97;;;26.40;75.10;;;;;;6154723;23;20005;-71
2023/12/08 08:11:44;;;;;;;25.40;5.63;;;26.30;74.80;;;;;;6153904;23;20014;-70
2023/12/08 08:14:12;;;;;;;20.73;5.47;;;26.30;74.80;;;;;;6128672;23;20009;-71
2023/12/08 08:16:39;;;;;;;17.65;5.07;;;26.30;74.80;;;;;;6154460;23;20006;-71
2023/12/08 08:19:06;;;;;;;23.70;6.13;;;26.30;75.10;;;;;;6154510;23;20091;-71
2023/12/08 08:21:34;;;;;;;21.83;6.00;;;26.30;75.20;;;;;;6154407;23;20006;-71
2023/12/08 08:24:01;;;;;;;23.77;5.63;;;26.30;75.40;;;;;;6153324;23;20336;-70
2023/12/08 08:26:28;;;;;;;21.65;5.70;;;26.30;75.20;;;;;;6155035;23;20080;-71
2023/12/08 08:28:55;;;;;;;19.73;5.32;;;26.20;75.20;;;;;;6155011;23;20040;-70
2023/12/08 08:31:23;;;;;;;16.45;5.60;;;26.20;75.30;;;;;;6154914;23;20008;-71
2023/12/08 08:33:50;;;;;;;15.60;5.13;;;26.20;75.50;;;;;;6154748;23;20429;-71
2023/12/08 08:36:17;;;;;;;24.30;5.57;;;26.20;75.30;;;;;;6155086;23;20005;-70
2023/12/08 08:38:44;;;;;;;16.50;4.90;;;26.20;74.80;;;;;;6129370;23;20315;-70
2023/12/08 08:41:12;;;;;;;22.35;5.55;;;26.10;75.00;;;;;;6154979;23;19997;-71
2023/12/08 08:43:39;;;;;;;18.42;5.45;;;26.20;74.50;;;;;;6154739;23;20008;-71
2023/12/08 08:46:07;;;;;;;22.00;5.72;;;26.20;74.30;;;;;;6154904;23;20009;-71
2023/12/08 08:48:34;;;;;;;22.33;5.43;;;26.10;74.10;;;;;;6155113;23;20044;-70
2023/12/08 08:51:01;;;;;;;20.73;5.38;;;26.10;74.30;;;;;;6154705;23;20337;-71
2023/12/08 08:53:29;;;;;;;20.42;5.57;;;26.10;74.30;;;;;;6154629;23;20076;-71
2023/12/08 08:55:56;;;;;;;22.83;5.78;;;26.10;74.40;;;;;;6154896;23;19998;-70
2023/12/08 08:58:24;;;;;;;25.60;6.00;;;26.10;73.90;;;;;;6154844;23;20323;-71
2023/12/08 09:00:51;;;;;;;18.52;4.50;;;26.10;74.20;;;;;;6154341;23;20356;-71
2023/12/08 09:03:18;;;;;;;17.05;5.18;;;26.10;74.20;;;;;;6154786;23;20013;-71
2023/12/08 09:05:46;;;;;;;19.63;5.53;;;26.00;74.20;;;;;;6154649;23;20437;-71
2023/12/08 09:08:13;;;;;;;23.60;6.00;;;26.10;74.40;;;;;;6128835;23;20072;-71
2023/12/08 09:10:44;;;;;;;14.65;5.22;;;26.10;74.10;;;;;;6154643;23;20012;-71
2023/12/08 09:13:14;;;;;;;26.38;6.68;;;26.00;73.90;;;;;;6129253;23;20033;-71
2023/12/08 09:15:43;;;;;;;18.30;5.38;;;26.00;73.90;;;;;;6154941;23;20002;-71
2023/12/08 09:18:10;;;;;;;18.07;4.67;;;26.00;73.90;;;;;;6154780;23;20064;-71
2023/12/08 09:20:38;;;;;;;16.52;5.40;;;26.00;73.70;;;;;;6154804;23;20056;-71
2023/12/08 09:23:05;;;;;;;19.65;5.22;;;26.00;74.40;;;;;;6154602;23;20002;-71
2023/12/08 09:25:33;;;;;;;18.25;5.63;;;25.90;74.60;;;;;;6154505;23;20468;-71
2023/12/08 09:28:00;;;;;;;19.73;5.57;;;25.90;74.30;;;;;;6154463;23;20024;-70
2023/12/08 09:30:27;;;;;;;23.88;6.35;;;25.90;74.40;;;;;;6154591;23;20006;-71
2023/12/08 09:32:57;;;;;;;24.58;5.88;;;25.90;74.00;;;;;;6155389;23;20029;-70
2023/12/08 09:35:25;;;;;;;15.77;4.93;;;25.90;73.80;;;;;;6156439;23;20008;-71
2023/12/08 09:37:52;;;;;;;23.70;5.40;;;25.80;74.00;;;;;;6156817;23;20005;-71
2023/12/08 09:40:19;;;;;;;21.33;6.05;;;25.80;74.20;;;;;;6156550;23;20009;-70
2023/12/08 09:42:52;;;;;;;21.40;5.10;;;25.80;74.30;;;;;;6156490;23;20006;-71
2023/12/08 09:45:20;;;;;;;22.92;5.22;;;25.80;74.50;;;;;;6156580;23;20002;-71
2023/12/08 09:47:51;;;;;;;25.02;5.88;;;25.80;74.50;;;;;;6130572;23;20013;-71
2023/12/08 09:50:18;;;;;;;21.85;5.88;;;25.80;74.30;;;;;;6156501;23;20001;-71
2023/12/08 09:52:45;;;;;;;21.17;5.70;;;25.80;74.90;;;;;;6106051;23;20192;-71
2023/12/08 09:55:12;;;;;;;25.42;5.85;;;25.70;74.90;;;;;;6130895;23;20002;-71
2023/12/08 09:57:43;;;;;;;19.42;5.68;;;25.70;74.90;;;;;;6106214;23;20017;-71
2023/12/08 10:00:13;;;;;;;21.35;6.28;;;25.70;74.50;;;;;;6156200;23;20084;-71
2023/12/08 10:02:43;;;;;;;21.27;5.85;;;25.70;74.30;;;;;;6156446;23;20344;-71
2023/12/08 10:05:13;;;;;;;19.40;5.72;;;25.70;74.30;;;;;;6156062;23;20010;-71
2023/12/08 10:07:43;;;;;;;27.15;5.90;;;25.70;74.70;;;;;;6156044;23;20013;-70
2023/12/08 10:10:12;;;;;;;;;;;25.70;75.00;;;;;;6131605;23;20001;-71
2023/12/08 10:12:40;;;;;;;17.13;5.13;;;25.70;74.70;;;;;;6156100;23;20283;-70
2023/12/08 10:15:11;;;;;;;21.55;5.50;;;25.60;74.30;;;;;;6156444;23;20013;-70
2023/12/08 10:17:49;;;;;;;22.30;5.20;;;25.70;73.90;;;;;;6130638;23;20105;-71
2023/12/08 10:20:17;;;;;;;23.23;5.95;;;25.70;73.70;;;;;;6155898;23;20002;-70
2023/12/08 10:22:54;;;;;;;19.13;5.53;;;25.80;73.80;;;;;;6156154;23;20013;-71
2023/12/08 10:25:22;;;;;;;22.67;5.55;;;25.70;73.80;;;;;;6155959;23;20002;-70
2023/12/08 10:27:54;;;;;;;22.08;5.75;;;25.70;73.90;;;;;;6130630;23;20022;-70
2023/12/08 10:30:26;;;;;;;22.17;6.10;;;25.70;74.10;;;;;;6130073;23;20013;-71
2023/12/08 10:32:53;;;;;;;22.67;5.60;;;25.70;74.30;;;;;;6155813;23;20061;-71
2023/12/08 10:35:21;;;;;;;25.95;6.72;;;25.70;74.30;;;;;;6155402;23;20081;-71
2023/12/08 10:37:48;;;;;;;20.88;5.47;;;25.70;74.20;;;;;;6156054;23;20054;-71
2023/12/08 10:40:17;;;;;;;15.73;5.00;;;25.70;74.50;;;;;;6130162;23;20033;-71
2023/12/08 10:42:48;;;;;;;16.30;5.20;;;25.70;74.80;;;;;;6155294;23;20005;-71
2023/12/08 10:45:16;;;;;;;22.83;5.47;;;25.70;74.70;;;;;;6155972;23;20009;-71
2023/12/08 10:47:44;;;;;;;22.88;6.30;;;25.70;74.80;;;;;;6155768;23;20013;-70
2023/12/08 10:50:12;;;;;;;25.25;6.65;;;25.60;75.20;;;;;;6156483;23;20064;-71
2023/12/08 10:52:40;;;;;;;24.75;5.70;;;25.60;75.40;;;;;;6155583;23;20037;-70
2023/12/08 10:55:12;;;;;;;19.65;5.68;;;25.50;75.60;;;;;;6155748;23;20016;-70
2023/12/08 10:57:40;;;;;;;21.85;5.40;;;25.50;75.50;;;;;;6156190;23;20006;-70
2023/12/08 11:00:18;;;;;;;20.50;5.85;;;25.50;76.00;;;;;;6130386;23;20076;-70
2023/12/08 11:02:49;;;;;;;26.70;5.85;;;25.50;76.00;;;;;;6155778;23;20012;-71
2023/12/08 11:05:29;;;;;;;28.10;6.20;;;25.40;76.20;;;;;;6155468;23;20002;-71
2023/12/08 11:07:58;;;;;;;20.95;5.72;;;25.40;76.50;;;;;;6155207;23;20013;-70
2023/12/08 11:10:29;;;;;;;26.88;6.95;;;25.40;76.10;;;;;;6130389;23;20497;-70
2023/12/08 11:13:28;;;;;;;24.25;5.95;;;25.40;76.00;;;;;;6130497;23;20336;-71
2023/12/08 11:16:19;;;;;;;21.80;6.05;;;25.40;76.30;;;;;;6156381;23;20006;-71
2023/12/08 11:18:46;;;;;;;25.10;6.18;;;25.40;76.40;;;;;;6155614;23;20076;-71
2023/12/08 11:21:13;;;;;;;16.75;5.80;;;25.30;76.70;;;;;;6105606;23;20013;-71
2023/12/08 11:23:41;;;;;;;26.08;5.85;;;25.30;76.80;;;;;;6155765;23;20009;-71
2023/12/08 11:26:19;;;;;;;21.20;5.45;;;25.30;77.00;;;;;;6130441;23;20006;-71
2023/12/08 11:29:13;;;;;;;24.52;5.70;;;25.30;77.20;;;;;;6129262;23;20018;-71
2023/12/08 11:31:52;;;;;;;20.25;5.95;;;25.30;77.20;;;;;;6133897;23;20068;-71
2023/12/08 11:34:21;;;;;;;20.75;5.63;;;25.30;77.30;;;;;;6155834;23;20080;-71
2023/12/08 11:36:50;;;;;;;22.77;5.67;;;25.20;77.50;;;;;;6129858;23;20062;-70
2023/12/08 11:39:38;;;;;;;26.48;5.82;;;25.20;77.50;;;;;;6154758;23;20322;-71
2023/12/08 11:42:09;;;;;;;23.02;5.95;;;25.20;77.70;;;;;;6154914;23;20017;-71
2023/12/08 11:44:42;;;;;;;20.48;5.80;;;25.20;77.80;;;;;;6130422;23;20017;-71
2023/12/08 11:47:10;;;;;;;22.42;5.47;;;25.20;77.50;;;;;;6155582;23;20378;-71
2023/12/08 11:49:44;;;;;;;22.95;5.90;;;25.20;77.40;;;;;;6155333;23;20033;-71
2023/12/08 11:52:21;;;;;;;21.05;5.13;;;25.30;77.50;;;;;;6130413;23;20480;-71
2023/12/08 11:55:24;;;;;;;18.70;5.10;;;25.20;77.50;;;;;;6155622;23;20432;-71
2023/12/08 11:58:00;;;;;;;20.98;5.35;;;25.20;77.70;;;;;;6154968;23;20044;-71
2023/12/08 12:00:28;;;;;;;24.85;5.93;;;25.20;77.70;;;;;;6155256;23;20017;-71
2023/12/08 12:02:56;;;;;;;29.85;6.22;;;25.20;77.80;;;;;;6154993;23;20064;-71
2023/12/08 12:05:24;;;;;;;27.48;5.97;;;25.20;77.50;;;;;;6155105;23;20008;-70
2023/12/08 12:07:52;;;;;;;21.80;5.70;;;25.20;77.60;;;;;;6155055;23;20018;-71
2023/12/08 12:10:28;;;;;;;26.13;5.60;;;25.20;77.50;;;;;;6155304;23;20018;-71
2023/12/08 12:12:57;;;;;;;24.73;6.28;;;25.20;77.30;;;;;;6154723;23;20129;-71
2023/12/08 12:15:25;;;;;;;24.92;5.85;;;25.20;77.30;;;;;;6129260;23;20021;-71
2023/12/08 12:17:53;;;;;;;17.38;5.10;;;25.20;77.60;;;;;;6155604;23;20041;-71
2023/12/08 12:20:20;;;;;;;23.10;5.53;;;25.20;77.30;;;;;;6128750;23;20019;-71
2023/12/08 12:22:47;;;;;;;17.65;5.53;;;25.20;77.70;;;;;;6155516;23;20061;-71
2023/12/08 12:25:14;;;;;;;22.83;6.38;;;25.20;77.80;;;;;;6155022;23;20002;-71
2023/12/08 12:27:49;;;;;;;26.17;5.65;;;25.10;78.00;;;;;;6155226;23;20017;-71
2023/12/08 12:30:20;;;;;;;20.92;5.13;;;25.10;78.20;;;;;;6155031;23;20096;-71
2023/12/08 12:32:48;;;;;;;19.50;5.68;;;25.10;78.20;;;;;;6155263;23;20009;-70
2023/12/08 12:35:16;;;;;;;26.25;6.63;;;25.10;78.30;;;;;;6154734;23;20029;-71
2023/12/08 12:37:43;;;;;;;19.48;5.57;;;25.00;78.20;;;;;;6155061;23;20005;-71
2023/12/08 12:40:11;;;;;;;21.92;5.95;;;25.00;78.20;;;;;;6155013;23;19997;-71
2023/12/08 12:42:48;;;;;;;19.90;6.00;;;25.00;78.20;;;;;;6155038;23;20005;-71
2023/12/08 12:45:31;;;;;;;24.77;5.65;;;25.00;78.30;;;;;;6155096;23;20072;-71
2023/12/08 12:48:07;;;;;;;23.35;5.05;;;25.00;78.10;;;;;;6154447;23;20017;-71
2023/12/08 12:50:47;;;;;;;18.40;5.05;;;25.00;78.00;;;;;;6129326;23;20006;-71
2023/12/08 12:53:15;;;;;;;22.10;5.25;;;25.00;77.80;;;;;;6154692;23;20006;-71
2023/12/08 12:55:42;;;;;;;23.05;5.35;;;25.10;77.90;;;;;;6129351;23;20302;-71
2023/12/08 12:58:20;;;;;;;24.08;5.82;;;25.10;77.80;;;;;;6128621;23;20024;-71
2023/12/08 13:00:47;;;;;;;19.27;5.40;;;25.10;77.80;;;;;;6129147;23;20001;-71
2023/12/08 13:03:17;;;;;;;24.58;5.80;;;25.10;77.60;;;;;;6154894;23;20073;-71
2023/12/08 13:05:45;;;;;;;20.10;6.05;;;25.10;77.70;;;;;;6154937;23;20005;-71
2023/12/08 13:08:13;;;;;;;19.25;4.65;;;25.10;77.60;;;;;;6154320;23;20084;-71
2023/12/08 13:10:40;;;;;;;23.63;6.07;;;25.10;77.80;;;;;;6154656;23;20006;-71
2023/12/08 13:13:07;;;;;;;20.63;5.25;;;25.10;77.80;;;;;;6154608;23;20483;-71
2023/12/08 13:15:35;;;;;;;19.13;5.25;;;25.00;77.80;;;;;;6154760;23;20002;-71
2023/12/08 13:18:04;;;;;;;17.85;4.55;;;25.10;77.70;;;;;;6154725;23;20014;-71
2023/12/08 13:20:31;;;;;;;17.05;5.32;;;25.00;77.50;;;;;;6154792;23;20333;-71
2023/12/08 13:22:58;;;;;;;22.02;5.47;;;25.10;77.70;;;;;;6154562;23;20143;-71
2023/12/08 13:25:26;;;;;;;24.00;4.90;;;25.10;77.40;;;;;;6154901;23;20392;-71
2023/12/08 13:27:53;;;;;;;21.67;5.28;;;25.10;77.50;;;;;;6154205;23;20021;-71
2023/12/08 13:30:20;;;;;;;19.63;4.97;;;25.10;77.50;;;;;;6155196;23;20072;-70
2023/12/08 13:32:47;;;;;;;18.10;4.53;;;25.00;77.70;;;;;;6154686;23;20028;-71
2023/12/08 13:35:15;;;;;;;20.20;4.97;;;25.10;77.40;;;;;;6154833;23;20005;-71
2023/12/08 13:37:42;;;;;;;25.33;5.53;;;25.10;77.40;;;;;;6154226;23;20009;-71
2023/12/08 13:40:11;;;;;;;22.17;6.40;;;25.10;77.40;;;;;;6129262;23;20080;-71
2023/12/08 13:42:39;;;;;;;21.15;5.03;;;25.10;77.30;;;;;;6154579;23;20036;-71
2023/12/08 13:45:08;;;;;;;24.63;6.32;;;25.10;77.30;;;;;;6154606;23;20012;-71
2023/12/08 13:47:35;;;;;;;19.77;5.30;;;25.10;77.10;;;;;;6154674;23;20013;-71
2023/12/08 13:50:03;;;;;;;22.65;5.68;;;25.20;77.30;;;;;;6154813;23;20458;-71
2023/12/08 13:52:30;;;;;;;20.42;5.10;;;25.20;77.20;;;;;;6154229;23;20021;-71
2023/12/08 13:54:57;;;;;;;21.85;5.25;;;25.10;77.20;;;;;;6154152;23;20013;-71
2023/12/08 13:57:25;;;;;;;20.88;5.45;;;25.20;77.30;;;;;;6154363;23;20002;-71
2023/12/08 13:59:52;;;;;;;17.52;4.72;;;25.10;77.30;;;;;;6154848;23;20060;-71
2023/12/08 14:02:19;;;;;;;17.60;4.82;;;25.10;77.40;;;;;;6154650;23;20006;-71
2023/12/08 14:04:46;;;;;;;17.23;5.45;;;25.10;77.40;;;;;;6154353;23;20113;-71
2023/12/08 14:07:13;;;;;;;26.67;5.80;;;25.20;77.40;;;;;;6154704;23;20018;-71
2023/12/08 14:09:41;;;;;;;22.88;5.50;;;25.20;77.50;;;;;;6154336;23;20009;-71
2023/12/08 14:12:08;;;;;;;16.05;4.78;;;25.10;77.40;;;;;;6154344;23;20512;-71
2023/12/08 14:14:35;;;;;;;22.75;5.72;;;25.10;77.20;;;;;;6154354;23;20303;-71
2023/12/08 14:17:02;;;;;;;24.33;5.75;;;25.20;77.30;;;;;;6154520;23;20081;-71
2023/12/08 14:19:30;;;;;;;28.88;6.28;;;25.20;77.10;;;;;;6155160;23;20413;-71
2023/12/08 14:21:58;;;;;;;21.60;5.30;;;25.20;77.10;;;;;;6155948;23;20005;-71
2023/12/08 14:24:25;;;;;;;17.70;4.93;;;25.20;77.00;;;;;;6155917;23;20002;-71
2023/12/08 14:26:53;;;;;;;20.17;5.32;;;25.20;76.90;;;;;;6156259;23;20441;-71
2023/12/08 14:29:21;;;;;;;20.48;4.90;;;25.30;76.90;;;;;;6155794;23;20453;-68
2023/12/08 14:31:49;;;;;;;22.60;5.38;;;25.30;76.90;;;;;;6155911;23;20484;-70
2023/12/08 14:34:16;;;;;;;19.98;5.13;;;25.30;77.10;;;;;;6156358;23;20013;-70
2023/12/08 14:36:43;;;;;;;21.75;5.63;;;25.20;77.40;;;;;;6155909;23;20006;-71
2023/12/08 14:39:11;;;;;;;19.02;4.82;;;25.20;77.40;;;;;;6156572;23;20010;-70
2023/12/08 14:41:38;;;;;;;26.27;6.22;;;25.20;77.60;;;;;;6156028;23;20064;-71
2023/12/08 14:44:05;;;;;;;20.70;5.18;;;25.20;77.90;;;;;;6155736;23;20001;-71
2023/12/08 14:46:34;;;;;;;19.65;5.25;;;25.10;78.00;;;;;;6155653;23;20036;-71
2023/12/08 14:49:04;;;;;;;17.38;4.85;;;25.10;77.90;;;;;;6156042;23;20353;-70
2023/12/08 14:51:31;;;;;;;23.75;5.25;;;25.10;78.00;;;;;;6155772;23;20001;-70
2023/12/08 14:53:58;;;;;;;23.48;6.10;;;25.10;77.90;;;;;;6156006;23;20001;-71
2023/12/08 14:56:27;;;;;;;20.25;5.70;;;25.10;78.20;;;;;;6155914;23;20433;-71
2023/12/08 14:58:54;;;;;;;22.48;5.30;;;25.10;78.40;;;;;;6156077;23;20429;-71
2023/12/08 15:01:23;;;;;;;22.45;5.10;;;25.10;78.50;;;;;;6156120;23;20672;-71
2023/12/08 15:03:50;;;;;;;17.50;4.88;;;25.00;78.50;;;;;;6155844;23;20012;-71
2023/12/08 15:06:17;;;;;;;21.15;5.20;;;25.00;78.60;;;;;;6155783;23;20984;-71
2023/12/08 15:08:44;;;;;;;25.35;5.13;;;25.00;78.50;;;;;;6155877;23;20372;-71
2023/12/08 15:11:12;;;;;;;23.80;5.50;;;25.00;78.60;;;;;;6155700;23;20016;-71
2023/12/08 15:13:39;;;;;;;18.02;5.03;;;25.00;78.60;;;;;;6155956;23;20072;-71
2023/12/08 15:16:07;;;;;;;18.27;4.70;;;25.10;78.60;;;;;;6155719;23;20437;-71
2023/12/08 15:18:35;;;;;;;19.75;4.97;;;25.00;78.60;;;;;;6155057;23;20076;-70
2023/12/08 15:21:05;;;;;;;17.55;5.03;;;25.00;78.60;;;;;;6155612;23;20012;-71
2023/12/08 15:23:32;;;;;;;19.52;5.47;;;25.00;78.60;;;;;;6155512;23;20009;-71
2023/12/08 15:26:00;;;;;;;19.40;5.22;;;25.00;78.70;;;;;;6155679;23;20010;-71
2023/12/08 15:28:27;;;;;;;24.00;5.93;;;25.00;78.70;;;;;;6155853;23;20049;-71
2023/12/08 15:30:54;;;;;;;24.17;6.07;;;24.90;78.90;;;;;;6155408;23;20326;-71
2023/12/08 15:33:22;;;;;;;19.98;4.88;;;24.90;79.40;;;;;;6155021;23;20413;-71
2023/12/08 15:35:49;;;;;;;23.77;5.20;;;24.90;79.30;;;;;;6155533;23;20001;-71
2023/12/08 15:38:16;;;;;;;18.23;5.57;;;24.90;79.90;;;;;;6156009;23;20002;-72
2023/12/08 15:40:43;;;;;;;21.05;5.15;;;24.80;80.40;;;;;;6155257;23;20013;-71
2023/12/08 15:43:11;;;;;;;22.70;5.53;;;24.80;80.00;;;;;;6155772;23;20008;-71
2023/12/08 15:45:38;;;;;;;17.55;5.10;;;24.80;79.40;;;;;;6155487;23;20033;-71
2023/12/08 15:48:05;;;;;;;22.05;5.22;;;24.80;79.30;;;;;;6155640;23;20386;-71
2023/12/08 15:50:32;;;;;;;21.88;5.93;;;24.90;79.50;;;;;;6155488;23;20005;-71
2023/12/08 15:53:00;;;;;;;22.27;5.68;;;24.90;79.40;;;;;;6155832;23;20001;-71
2023/12/08 15:55:27;;;;;;;21.20;5.20;;;24.90;79.50;;;;;;6155549;23;20029;-71
2023/12/08 15:57:54;;;;;;;20.35;5.80;;;24.90;79.70;;;;;;6155207;23;20338;-71
2023/12/08 16:00:21;;;;;;;23.67;5.95;;;24.90;79.90;;;;;;6155404;23;20101;-71
2023/12/08 16:02:49;;;;;;;23.10;6.32;;;24.80;80.30;;;;;;6155545;23;19997;-71
2023/12/08 16:05:16;;;;;;;23.63;5.90;;;24.80;80.70;;;;;;6155207;23;20005;-71
2023/12/08 16:07:43;;;;;;;23.85;5.35;;;24.80;81.40;;;;;;6155172;23;20402;-71
2023/12/08 16:10:10;;;;;;;23.52;5.82;;;24.80;81.60;;;;;;6155230;23;20033;-71
2023/12/08 16:12:37;;;;;;;27.92;6.20;;;24.80;82.00;;;;;;6155233;23;20060;-71
2023/12/08 16:15:08;;;;;;;24.35;5.65;;;24.70;81.90;;;;;;6154674;23;20033;-71
2023/12/08 16:17:35;;;;;;;26.55;6.38;;;24.80;81.70;;;;;;6155041;23;20113;-71
2023/12/08 16:20:03;;;;;;;26.05;6.20;;;24.70;82.00;;;;;;6155041;23;20004;-71
2023/12/08 16:22:30;;;;;;;26.20;5.72;;;24.70;81.80;;;;;;6155336;23;20025;-71
2023/12/08 16:24:57;;;;;;;23.88;6.20;;;24.70;81.70;;;;;;6155472;23;20001;-71
2023/12/08 16:27:24;;;;;;;23.55;5.75;;;24.70;81.30;;;;;;6154680;23;20093;-71
2023/12/08 16:29:51;;;;;;;23.02;5.93;;;24.70;81.40;;;;;;6154947;23;20014;-71
2023/12/08 16:32:19;;;;;;;25.27;5.60;;;24.70;81.60;;;;;;6155012;23;20006;-71
2023/12/08 16:34:46;;;;;;;26.38;5.75;;;24.70;81.60;;;;;;6154710;23;20001;-71
2023/12/08 16:37:13;;;;;;;21.75;5.75;;;24.70;81.40;;;;;;6154927;23;20005;-71
2023/12/08 16:39:40;;;;;;;17.27;5.07;;;24.60;81.50;;;;;;6154751;23;20072;-71
2023/12/08 16:42:08;;;;;;;22.02;5.95;;;24.70;81.40;;;;;;6154808;23;20492;-71
2023/12/08 16:44:35;;;;;;;19.80;6.10;;;24.60;81.40;;;;;;6154871;23;20001;-71
2023/12/08 16:47:02;;;;;;;22.63;6.18;;;24.60;81.50;;;;;;6154792;23;20057;-70
2023/12/08 16:49:29;;;;;;;24.10;5.90;;;24.60;81.40;;;;;;6155215;23;20014;-71
2023/12/08 16:51:57;;;;;;;21.08;5.82;;;24.50;81.50;;;;;;6155109;23;20484;-71
2023/12/08 16:54:24;;;;;;;27.67;5.82;;;24.50;81.60;;;;;;6155007;23;20005;-71
2023/12/08 16:56:53;;;;;;;18.80;5.30;;;24.50;81.60;;;;;;6155057;23;20080;-71
2023/12/08 16:59:21;;;;;;;27.05;6.55;;;24.40;81.80;;;;;;6154386;23;20012;-71
2023/12/08 17:01:48;;;;;;;21.90;5.85;;;24.50;81.90;;;;;;6154540;23;20010;-71
2023/12/08 17:04:15;;;;;;;17.40;5.47;;;24.50;82.00;;;;;;6155142;23;20029;-71
2023/12/08 17:06:43;;;;;;;21.48;5.20;;;24.50;81.90;;;;;;6154595;23;20337;-71
2023/12/08 17:09:10;;;;;;;24.67;6.38;;;24.50;82.00;;;;;;6154567;23;20084;-71
2023/12/08 17:11:37;;;;;;;24.13;5.70;;;24.50;82.10;;;;;;6154768;23;20033;-71
2023/12/08 17:14:05;;;;;;;23.92;5.47;;;24.50;82.10;;;;;;6155043;23;20314;-71
2023/12/08 17:16:32;;;;;;;26.38;5.90;;;24.50;82.20;;;;;;6154801;23;20421;-71
2023/12/08 17:19:00;;;;;;;18.98;5.97;;;24.40;82.40;;;;;;6128900;23;20005;-71
2023/12/08 17:21:29;;;;;;;18.08;5.32;;;24.50;82.40;;;;;;6154407;23;20005;-71
2023/12/08 17:23:56;;;;;;;22.35;5.45;;;24.50;82.30;;;;;;6154643;23;20014;-71
2023/12/08 17:26:23;;;;;;;21.38;5.88;;;24.40;82.50;;;;;;6154674;23;20512;-71
2023/12/08 17:28:50;;;;;;;19.95;5.53;;;24.40;82.60;;;;;;6154669;23;20029;-71
2023/12/08 17:31:18;;;;;;;22.02;5.40;;;24.40;82.60;;;;;;6155003;23;20452;-71
2023/12/08 17:33:45;;;;;;;17.73;5.03;;;24.30;82.60;;;;;;6153985;23;20006;-71
2023/12/08 17:36:13;;;;;;;23.23;5.53;;;24.30;82.70;;;;;;6154715;23;19997;-71
2023/12/08 17:38:41;;;;;;;21.00;5.65;;;24.30;82.80;;;;;;6154749;23;20009;-71
2023/12/08 17:41:08;;;;;;;24.08;5.70;;;24.30;82.70;;;;;;6154432;23;20006;-71
2023/12/08 17:43:36;;;;;;;22.40;5.57;;;24.30;82.90;;;;;;6154983;23;20009;-71
2023/12/08 17:46:03;;;;;;;21.85;5.22;;;24.30;82.90;;;;;;6154423;23;20366;-71
2023/12/08 17:48:30;;;;;;;17.67;5.10;;;24.30;83.10;;;;;;6154440;23;20025;-71
2023/12/08 17:50:59;;;;;;;24.90;6.03;;;24.30;83.20;;;;;;6154828;23;20009;-71
2023/12/08 17:53:26;;;;;;;19.50;5.25;;;24.30;83.10;;;;;;6128711;23;20005;-71
2023/12/08 17:55:53;;;;;;;20.15;5.82;;;24.20;83.10;;;;;;6156527;23;20309;-71
2023/12/08 17:58:21;;;;;;;23.70;5.82;;;24.30;83.10;;;;;;6156864;23;20310;-71
2023/12/08 18:00:48;;;;;;;20.88;5.47;;;24.30;83.10;;;;;;6156465;23;20072;-71
2023/12/08 18:03:18;;;;;;;23.80;5.55;;;24.30;83.00;;;;;;6156360;23;20344;-71
2023/12/08 18:05:44;;;;;;;;;;;24.30;83.00;;;;;;6156495;23;20006;-71
2023/12/08 18:08:13;;;;;;;16.45;4.93;;;24.30;83.10;;;;;;6156238;23;20324;-71
2023/12/08 18:10:40;;;;;;;20.42;4.97;;;24.30;83.20;;;;;;6156173;23;20299;-71
2023/12/08 18:13:07;;;;;;;24.30;5.57;;;24.30;83.40;;;;;;6156215;23;20006;-71
2023/12/08 18:15:34;;;;;;;19.92;4.68;;;24.20;83.40;;;;;;6156663;23;20056;-71
2023/12/08 18:18:02;;;;;;;23.83;5.45;;;24.20;83.40;;;;;;6156081;23;20033;-71
2023/12/08 18:20:29;;;;;;;21.63;5.63;;;24.20;83.50;;;;;;6156146;23;20436;-71
2023/12/08 18:22:56;;;;;;;22.70;5.80;;;24.20;83.60;;;;;;6130415;23;20072;-71
2023/12/08 18:25:24;;;;;;;20.95;4.85;;;24.20;83.60;;;;;;6130565;23;20001;-71
2023/12/08 18:27:51;;;;;;;25.73;5.90;;;24.20;83.60;;;;;;6155690;23;20013;-70
2023/12/08 18:30:18;;;;;;;26.90;5.53;;;24.10;83.70;;;;;;6156348;23;20006;-71
2023/12/08 18:32:46;;;;;;;20.67;5.05;;;24.10;83.70;;;;;;6155972;23;20006;-71
2023/12/08 18:35:15;;;;;;;15.75;5.20;;;24.10;83.70;;;;;;6156092;23;20001;-71
2023/12/08 18:37:42;;;;;;;18.85;5.07;;;24.10;83.80;;;;;;6156241;23;20001;-71
2023/12/08 18:40:10;;;;;;;18.80;5.15;;;24.10;84.00;;;;;;6156561;23;20372;-71
2023/12/08 18:42:37;;;;;;;24.40;5.68;;;24.00;84.20;;;;;;6155820;23;20013;-71
2023/12/08 18:45:05;;;;;;;21.63;5.07;;;24.10;84.30;;;;;;6156032;23;20012;-71
2023/12/08 18:47:32;;;;;;;21.35;5.30;;;24.10;84.30;;;;;;6156369;23;20017;-70
2023/12/08 18:50:00;;;;;;;18.77;5.88;;;24.10;84.50;;;;;;6156066;23;19998;-70
2023/12/08 18:52:27;;;;;;;21.63;6.03;;;24.00;84.60;;;;;;6155652;23;20016;-70
2023/12/08 18:54:55;;;;;;;23.80;5.30;;;24.00;84.70;;;;;;6155580;23;20036;-71
2023/12/08 18:57:22;;;;;;;17.90;5.25;;;24.00;84.80;;;;;;6155616;23;20396;-71
2023/12/08 18:59:49;;;;;;;16.25;5.07;;;24.10;84.70;;;;;;6155725;23;20006;-71
2023/12/08 19:02:16;;;;;;;18.73;5.03;;;24.10;84.80;;;;;;6155597;23;20020;-71
2023/12/08 19:04:44;;;;;;;19.67;5.55;;;24.10;84.90;;;;;;6155470;23;20080;-71
2023/12/08 19:07:11;;;;;;;22.48;5.80;;;24.10;85.00;;;;;;6156511;23;20033;-71
2023/12/08 19:09:40;;;;;;;22.98;5.47;;;24.10;85.00;;;;;;6155683;23;20036;-71
2023/12/08 19:12:08;;;;;;;20.05;5.60;;;24.10;85.00;;;;;;6155441;23;20089;-71
2023/12/08 19:14:35;;;;;;;20.38;5.38;;;24.10;84.80;;;;;;6155626;23;20005;-71
2023/12/08 19:17:02;;;;;;;19.73;5.65;;;24.10;84.90;;;;;;6156006;23;19998;-71
2023/12/08 19:19:29;;;;;;;21.90;6.13;;;24.10;84.90;;;;;;6155640;23;20088;-71
2023/12/08 19:21:56;;;;;;;22.58;5.95;;;24.10;84.90;;;;;;6155061;23;19998;-71
2023/12/08 19:24:24;;;;;;;21.98;5.57;;;24.00;84.80;;;;;;6155329;23;20005;-71
2023/12/08 19:26:51;;;;;;;21.40;5.93;;;24.10;84.90;;;;;;6155436;23;20033;-71
2023/12/08 19:29:19;;;;;;;18.73;5.32;;;24.10;84.80;;;;;;6155376;23;20017;-71
2023/12/08 19:31:46;;;;;;;23.67;6.13;;;24.20;84.50;;;;;;6154973;23;20005;-71
2023/12/08 19:34:13;;;;;;;21.50;5.45;;;24.20;84.30;;;;;;6156109;23;20013;-71
2023/12/08 19:36:40;;;;;;;19.83;6.32;;;24.20;84.40;;;;;;6155764;23;20009;-71
2023/12/08 19:39:09;;;;;;;20.40;5.15;;;24.20;84.50;;;;;;6155545;23;20029;-71
2023/12/08 19:41:37;;;;;;;21.97;5.63;;;24.30;84.60;;;;;;6155411;23;20080;-71
2023/12/08 19:44:06;;;;;;;18.08;5.80;;;24.40;84.50;;;;;;6154773;23;19997;-71
2023/12/08 19:46:34;;;;;;;19.75;5.72;;;24.50;84.50;;;;;;6155288;23;20096;-71
2023/12/08 19:49:01;;;;;;;18.75;5.70;;;24.50;84.30;;;;;;6155280;23;20425;-71
2023/12/08 19:51:28;;;;;;;23.30;5.93;;;24.60;84.10;;;;;;6155187;23;20437;-71
2023/12/08 19:53:55;;;;;;;17.25;5.22;;;24.60;84.10;;;;;;6155260;23;20002;-70
2023/12/08 19:56:22;;;;;;;19.08;5.57;;;24.70;84.00;;;;;;6155299;23;20481;-71
2023/12/08 19:58:50;;;;;;;21.23;5.50;;;24.70;83.90;;;;;;6155578;23;20009;-71
2023/12/08 20:01:17;;;;;;;24.52;6.18;;;24.80;83.60;;;;;;6155145;23;20006;-71